sensor_id;sensor_type;location;lat;lon;timestamp;P1;durP1;ratioP1;P2;durP2;ratioP2
15116;SDS011;7659;51.038;13.786;2023-03-01T00:00:44;43.17;;;27.02;;
15116;SDS011;7659;51.038;13.786;2023-03-01T00:03:12;45.20;;;28.80;;
15116;SDS011;7659;51.038;13.786;2023-03-01T00:05:43;45.13;;;27.15;;
15116;SDS011;7659;51.038;13.786;2023-03-01T00:08:08;41.05;;;26.35;;
15116;SDS011;7659;51.038;13.786;2023-03-01T00:10:34;47.17;;;26.50;;
15116;SDS011;7659;51.038;13.786;2023-03-01T00:12:59;42.47;;;26.25;;
15116;SDS011;7659;51.038;13.786;2023-03-01T00:15:25;44.22;;;26.02;;
15116;SDS011;7659;51.038;13.786;2023-03-01T00:17:50;42.30;;;26.02;;
15116;SDS011;7659;51.038;13.786;2023-03-01T00:20:16;47.13;;;27.27;;
15116;SDS011;7659;51.038;13.786;2023-03-01T00:22:41;47.90;;;26.85;;
15116;SDS011;7659;51.038;13.786;2023-03-01T00:25:07;40.13;;;25.88;;
15116;SDS011;7659;51.038;13.786;2023-03-01T00:27:33;44.70;;;28.95;;
15116;SDS011;7659;51.038;13.786;2023-03-01T00:29:58;46.38;;;27.35;;
15116;SDS011;7659;51.038;13.786;2023-03-01T00:32:24;43.97;;;27.75;;
15116;SDS011;7659;51.038;13.786;2023-03-01T00:34:50;45.33;;;27.75;;
15116;SDS011;7659;51.038;13.786;2023-03-01T00:37:21;46.42;;;28.38;;
15116;SDS011;7659;51.038;13.786;2023-03-01T00:39:46;46.25;;;27.02;;
15116;SDS011;7659;51.038;13.786;2023-03-01T00:42:12;44.63;;;27.83;;
15116;SDS011;7659;51.038;13.786;2023-03-01T00:44:37;46.22;;;27.67;;
15116;SDS011;7659;51.038;13.786;2023-03-01T00:47:03;45.50;;;28.10;;
15116;SDS011;7659;51.038;13.786;2023-03-01T00:49:30;48.78;;;27.23;;
15116;SDS011;7659;51.038;13.786;2023-03-01T00:51:55;45.22;;;27.20;;
15116;SDS011;7659;51.038;13.786;2023-03-01T00:54:22;42.65;;;27.05;;
15116;SDS011;7659;51.038;13.786;2023-03-01T00:56:48;43.85;;;25.50;;
15116;SDS011;7659;51.038;13.786;2023-03-01T00:59:13;44.03;;;26.42;;
15116;SDS011;7659;51.038;13.786;2023-03-01T01:01:39;43.67;;;27.40;;
15116;SDS011;7659;51.038;13.786;2023-03-01T01:04:06;46.30;;;28.17;;
15116;SDS011;7659;51.038;13.786;2023-03-01T01:06:33;53.53;;;30.05;;
15116;SDS011;7659;51.038;13.786;2023-03-01T01:08:59;46.92;;;29.58;;
15116;SDS011;7659;51.038;13.786;2023-03-01T01:11:25;50.25;;;29.25;;
15116;SDS011;7659;51.038;13.786;2023-03-01T01:13:51;48.55;;;29.73;;
15116;SDS011;7659;51.038;13.786;2023-03-01T01:16:18;48.45;;;29.40;;
15116;SDS011;7659;51.038;13.786;2023-03-01T01:18:44;46.30;;;28.08;;
15116;SDS011;7659;51.038;13.786;2023-03-01T01:21:11;44.42;;;27.00;;
15116;SDS011;7659;51.038;13.786;2023-03-01T01:23:37;39.58;;;26.65;;
15116;SDS011;7659;51.038;13.786;2023-03-01T01:26:06;46.33;;;27.20;;
15116;SDS011;7659;51.038;13.786;2023-03-01T01:28:32;46.38;;;27.60;;
15116;SDS011;7659;51.038;13.786;2023-03-01T01:30:57;43.38;;;25.98;;
15116;SDS011;7659;51.038;13.786;2023-03-01T01:33:23;45.53;;;27.55;;
15116;SDS011;7659;51.038;13.786;2023-03-01T01:35:48;46.03;;;27.45;;
15116;SDS011;7659;51.038;13.786;2023-03-01T01:38:14;44.45;;;27.05;;
15116;SDS011;7659;51.038;13.786;2023-03-01T01:40:45;43.75;;;26.83;;
15116;SDS011;7659;51.038;13.786;2023-03-01T01:43:16;42.08;;;25.88;;
15116;SDS011;7659;51.038;13.786;2023-03-01T01:45:43;47.78;;;28.20;;
15116;SDS011;7659;51.038;13.786;2023-03-01T01:48:12;49.15;;;27.08;;
15116;SDS011;7659;51.038;13.786;2023-03-01T01:50:40;45.88;;;27.15;;
15116;SDS011;7659;51.038;13.786;2023-03-01T01:53:07;45.55;;;26.95;;
15116;SDS011;7659;51.038;13.786;2023-03-01T01:55:33;42.35;;;25.67;;
15116;SDS011;7659;51.038;13.786;2023-03-01T01:58:02;42.05;;;26.27;;
15116;SDS011;7659;51.038;13.786;2023-03-01T02:00:28;44.13;;;26.63;;
15116;SDS011;7659;51.038;13.786;2023-03-01T02:02:55;47.33;;;26.92;;
15116;SDS011;7659;51.038;13.786;2023-03-01T02:07:56;39.58;;;25.55;;
15116;SDS011;7659;51.038;13.786;2023-03-01T02:10:23;42.28;;;26.48;;
15116;SDS011;7659;51.038;13.786;2023-03-01T02:12:49;47.75;;;26.95;;
15116;SDS011;7659;51.038;13.786;2023-03-01T02:15:15;43.60;;;26.08;;
15116;SDS011;7659;51.038;13.786;2023-03-01T02:17:40;46.38;;;25.58;;
15116;SDS011;7659;51.038;13.786;2023-03-01T02:22:41;43.50;;;25.60;;
15116;SDS011;7659;51.038;13.786;2023-03-01T02:27:58;45.08;;;26.08;;
15116;SDS011;7659;51.038;13.786;2023-03-01T02:30:26;46.60;;;27.52;;
15116;SDS011;7659;51.038;13.786;2023-03-01T02:32:52;43.22;;;26.90;;
15116;SDS011;7659;51.038;13.786;2023-03-01T02:35:19;42.55;;;26.77;;
15116;SDS011;7659;51.038;13.786;2023-03-01T02:37:46;43.03;;;26.25;;
15116;SDS011;7659;51.038;13.786;2023-03-01T02:40:13;43.38;;;27.52;;
15116;SDS011;7659;51.038;13.786;2023-03-01T02:42:54;41.72;;;26.52;;
15116;SDS011;7659;51.038;13.786;2023-03-01T02:45:21;43.13;;;27.30;;
15116;SDS011;7659;51.038;13.786;2023-03-01T02:47:46;42.63;;;26.58;;
15116;SDS011;7659;51.038;13.786;2023-03-01T02:50:19;45.28;;;27.33;;
15116;SDS011;7659;51.038;13.786;2023-03-01T02:55:32;46.42;;;27.00;;
15116;SDS011;7659;51.038;13.786;2023-03-01T02:57:57;43.63;;;27.15;;
15116;SDS011;7659;51.038;13.786;2023-03-01T03:00:26;47.35;;;28.85;;
15116;SDS011;7659;51.038;13.786;2023-03-01T03:02:54;47.55;;;27.60;;
15116;SDS011;7659;51.038;13.786;2023-03-01T03:05:24;47.92;;;27.58;;
15116;SDS011;7659;51.038;13.786;2023-03-01T03:07:52;46.30;;;27.27;;
15116;SDS011;7659;51.038;13.786;2023-03-01T03:10:19;44.63;;;27.45;;
15116;SDS011;7659;51.038;13.786;2023-03-01T03:12:49;48.33;;;28.58;;
15116;SDS011;7659;51.038;13.786;2023-03-01T03:15:15;46.92;;;27.88;;
15116;SDS011;7659;51.038;13.786;2023-03-01T03:17:41;45.92;;;27.83;;
15116;SDS011;7659;51.038;13.786;2023-03-01T03:20:08;49.88;;;28.40;;
15116;SDS011;7659;51.038;13.786;2023-03-01T03:22:38;49.80;;;28.75;;
15116;SDS011;7659;51.038;13.786;2023-03-01T03:25:04;45.95;;;26.65;;
15116;SDS011;7659;51.038;13.786;2023-03-01T03:27:29;44.17;;;26.27;;
15116;SDS011;7659;51.038;13.786;2023-03-01T03:29:57;47.78;;;26.23;;
15116;SDS011;7659;51.038;13.786;2023-03-01T03:32:22;42.30;;;26.83;;
15116;SDS011;7659;51.038;13.786;2023-03-01T03:34:48;45.85;;;27.83;;
15116;SDS011;7659;51.038;13.786;2023-03-01T03:37:14;46.20;;;27.13;;
15116;SDS011;7659;51.038;13.786;2023-03-01T03:39:59;45.17;;;26.42;;
15116;SDS011;7659;51.038;13.786;2023-03-01T03:42:25;44.50;;;27.00;;
15116;SDS011;7659;51.038;13.786;2023-03-01T03:44:50;41.58;;;25.63;;
15116;SDS011;7659;51.038;13.786;2023-03-01T03:47:16;45.40;;;26.20;;
15116;SDS011;7659;51.038;13.786;2023-03-01T03:49:41;46.15;;;26.13;;
15116;SDS011;7659;51.038;13.786;2023-03-01T03:52:06;47.35;;;25.40;;
15116;SDS011;7659;51.038;13.786;2023-03-01T03:54:41;45.88;;;27.17;;
15116;SDS011;7659;51.038;13.786;2023-03-01T03:57:07;44.88;;;26.27;;
15116;SDS011;7659;51.038;13.786;2023-03-01T03:59:32;41.50;;;25.45;;
15116;SDS011;7659;51.038;13.786;2023-03-01T04:01:58;43.33;;;26.02;;
15116;SDS011;7659;51.038;13.786;2023-03-01T04:04:23;42.95;;;24.92;;
15116;SDS011;7659;51.038;13.786;2023-03-01T04:06:48;42.47;;;26.05;;
15116;SDS011;7659;51.038;13.786;2023-03-01T04:09:14;41.70;;;26.73;;
15116;SDS011;7659;51.038;13.786;2023-03-01T04:11:39;41.75;;;26.02;;
15116;SDS011;7659;51.038;13.786;2023-03-01T04:14:05;45.85;;;25.35;;
15116;SDS011;7659;51.038;13.786;2023-03-01T04:16:30;42.85;;;26.52;;
15116;SDS011;7659;51.038;13.786;2023-03-01T04:18:56;44.45;;;25.98;;
15116;SDS011;7659;51.038;13.786;2023-03-01T04:21:24;49.47;;;26.00;;
15116;SDS011;7659;51.038;13.786;2023-03-01T04:23:50;42.53;;;26.45;;
15116;SDS011;7659;51.038;13.786;2023-03-01T04:26:18;43.55;;;27.85;;
15116;SDS011;7659;51.038;13.786;2023-03-01T04:28:44;45.70;;;27.55;;
15116;SDS011;7659;51.038;13.786;2023-03-01T04:31:12;48.42;;;28.95;;
15116;SDS011;7659;51.038;13.786;2023-03-01T04:33:53;43.28;;;26.42;;
15116;SDS011;7659;51.038;13.786;2023-03-01T04:36:20;43.70;;;26.70;;
15116;SDS011;7659;51.038;13.786;2023-03-01T04:38:46;44.80;;;26.27;;
15116;SDS011;7659;51.038;13.786;2023-03-01T04:41:13;50.60;;;27.95;;
15116;SDS011;7659;51.038;13.786;2023-03-01T04:43:38;45.35;;;27.40;;
15116;SDS011;7659;51.038;13.786;2023-03-01T04:46:05;40.80;;;25.98;;
15116;SDS011;7659;51.038;13.786;2023-03-01T04:48:31;46.50;;;27.30;;
15116;SDS011;7659;51.038;13.786;2023-03-01T04:51:00;46.67;;;26.98;;
15116;SDS011;7659;51.038;13.786;2023-03-01T04:53:26;46.30;;;26.45;;
15116;SDS011;7659;51.038;13.786;2023-03-01T04:55:53;40.85;;;25.48;;
15116;SDS011;7659;51.038;13.786;2023-03-01T04:58:18;42.97;;;25.67;;
15116;SDS011;7659;51.038;13.786;2023-03-01T05:00:44;46.58;;;28.15;;
15116;SDS011;7659;51.038;13.786;2023-03-01T05:03:09;44.95;;;27.13;;
15116;SDS011;7659;51.038;13.786;2023-03-01T05:05:36;45.33;;;27.05;;
15116;SDS011;7659;51.038;13.786;2023-03-01T05:08:03;45.88;;;26.27;;
15116;SDS011;7659;51.038;13.786;2023-03-01T05:10:30;42.83;;;26.10;;
15116;SDS011;7659;51.038;13.786;2023-03-01T05:12:56;46.20;;;26.80;;
15116;SDS011;7659;51.038;13.786;2023-03-01T05:15:22;46.47;;;25.27;;
15116;SDS011;7659;51.038;13.786;2023-03-01T05:17:50;42.50;;;26.30;;
15116;SDS011;7659;51.038;13.786;2023-03-01T05:20:16;48.75;;;27.23;;
15116;SDS011;7659;51.038;13.786;2023-03-01T05:22:42;42.88;;;24.83;;
15116;SDS011;7659;51.038;13.786;2023-03-01T05:25:07;44.25;;;26.83;;
15116;SDS011;7659;51.038;13.786;2023-03-01T05:27:33;47.33;;;26.25;;
15116;SDS011;7659;51.038;13.786;2023-03-01T05:29:58;43.58;;;25.23;;
15116;SDS011;7659;51.038;13.786;2023-03-01T05:32:24;42.05;;;25.88;;
15116;SDS011;7659;51.038;13.786;2023-03-01T05:34:49;50.25;;;26.83;;
15116;SDS011;7659;51.038;13.786;2023-03-01T05:37:17;43.80;;;26.95;;
15116;SDS011;7659;51.038;13.786;2023-03-01T05:39:42;45.58;;;26.63;;
15116;SDS011;7659;51.038;13.786;2023-03-01T05:42:09;45.42;;;27.20;;
15116;SDS011;7659;51.038;13.786;2023-03-01T05:44:35;43.65;;;25.75;;
15116;SDS011;7659;51.038;13.786;2023-03-01T05:47:01;43.45;;;26.00;;
15116;SDS011;7659;51.038;13.786;2023-03-01T05:49:26;46.90;;;26.65;;
15116;SDS011;7659;51.038;13.786;2023-03-01T05:51:52;41.60;;;26.30;;
15116;SDS011;7659;51.038;13.786;2023-03-01T05:54:18;44.38;;;27.50;;
15116;SDS011;7659;51.038;13.786;2023-03-01T05:56:44;42.47;;;25.63;;
15116;SDS011;7659;51.038;13.786;2023-03-01T05:59:10;46.42;;;27.15;;
15116;SDS011;7659;51.038;13.786;2023-03-01T06:01:35;46.95;;;26.50;;
15116;SDS011;7659;51.038;13.786;2023-03-01T06:04:01;39.55;;;25.13;;
15116;SDS011;7659;51.038;13.786;2023-03-01T06:06:27;43.55;;;26.13;;
15116;SDS011;7659;51.038;13.786;2023-03-01T06:08:52;47.15;;;28.17;;
15116;SDS011;7659;51.038;13.786;2023-03-01T06:11:18;45.42;;;28.13;;
15116;SDS011;7659;51.038;13.786;2023-03-01T06:13:44;45.35;;;26.83;;
15116;SDS011;7659;51.038;13.786;2023-03-01T06:16:09;49.17;;;26.63;;
15116;SDS011;7659;51.038;13.786;2023-03-01T06:18:35;53.58;;;26.70;;
15116;SDS011;7659;51.038;13.786;2023-03-01T06:21:01;44.45;;;26.25;;
15116;SDS011;7659;51.038;13.786;2023-03-01T06:23:26;42.55;;;25.35;;
15116;SDS011;7659;51.038;13.786;2023-03-01T06:25:52;37.42;;;24.20;;
15116;SDS011;7659;51.038;13.786;2023-03-01T06:28:18;44.50;;;25.90;;
15116;SDS011;7659;51.038;13.786;2023-03-01T06:30:43;44.47;;;25.42;;
15116;SDS011;7659;51.038;13.786;2023-03-01T06:33:08;43.92;;;26.45;;
15116;SDS011;7659;51.038;13.786;2023-03-01T06:35:34;46.92;;;27.38;;
15116;SDS011;7659;51.038;13.786;2023-03-01T06:38:00;47.15;;;26.30;;
15116;SDS011;7659;51.038;13.786;2023-03-01T06:40:26;45.08;;;26.75;;
15116;SDS011;7659;51.038;13.786;2023-03-01T06:42:51;48.95;;;27.00;;
15116;SDS011;7659;51.038;13.786;2023-03-01T06:45:17;43.28;;;24.95;;
15116;SDS011;7659;51.038;13.786;2023-03-01T06:47:43;40.08;;;24.23;;
15116;SDS011;7659;51.038;13.786;2023-03-01T06:50:09;45.53;;;25.77;;
15116;SDS011;7659;51.038;13.786;2023-03-01T06:52:34;47.55;;;25.23;;
15116;SDS011;7659;51.038;13.786;2023-03-01T06:55:00;40.70;;;24.85;;
15116;SDS011;7659;51.038;13.786;2023-03-01T06:57:25;45.05;;;26.90;;
15116;SDS011;7659;51.038;13.786;2023-03-01T06:59:51;44.65;;;24.33;;
15116;SDS011;7659;51.038;13.786;2023-03-01T07:02:16;39.78;;;23.63;;
15116;SDS011;7659;51.038;13.786;2023-03-01T07:04:42;45.50;;;25.02;;
15116;SDS011;7659;51.038;13.786;2023-03-01T07:07:07;40.13;;;23.63;;
15116;SDS011;7659;51.038;13.786;2023-03-01T07:09:33;44.95;;;24.23;;
15116;SDS011;7659;51.038;13.786;2023-03-01T07:11:58;37.03;;;24.38;;
15116;SDS011;7659;51.038;13.786;2023-03-01T07:14:24;40.67;;;24.13;;
15116;SDS011;7659;51.038;13.786;2023-03-01T07:16:51;39.08;;;24.73;;
15116;SDS011;7659;51.038;13.786;2023-03-01T07:19:16;49.08;;;24.63;;
15116;SDS011;7659;51.038;13.786;2023-03-01T07:21:42;42.47;;;24.80;;
15116;SDS011;7659;51.038;13.786;2023-03-01T07:24:08;43.35;;;25.08;;
15116;SDS011;7659;51.038;13.786;2023-03-01T07:26:33;41.13;;;25.52;;
15116;SDS011;7659;51.038;13.786;2023-03-01T07:28:59;41.35;;;24.95;;
15116;SDS011;7659;51.038;13.786;2023-03-01T07:31:25;41.47;;;25.55;;
15116;SDS011;7659;51.038;13.786;2023-03-01T07:33:56;45.72;;;26.67;;
15116;SDS011;7659;51.038;13.786;2023-03-01T07:36:22;41.05;;;24.95;;
15116;SDS011;7659;51.038;13.786;2023-03-01T07:38:47;41.83;;;25.83;;
15116;SDS011;7659;51.038;13.786;2023-03-01T07:41:13;42.10;;;25.52;;
15116;SDS011;7659;51.038;13.786;2023-03-01T07:43:38;39.72;;;25.30;;
15116;SDS011;7659;51.038;13.786;2023-03-01T07:46:04;45.45;;;26.95;;
15116;SDS011;7659;51.038;13.786;2023-03-01T07:48:30;45.20;;;26.42;;
15116;SDS011;7659;51.038;13.786;2023-03-01T07:50:59;41.67;;;25.25;;
15116;SDS011;7659;51.038;13.786;2023-03-01T07:53:25;45.45;;;25.98;;
15116;SDS011;7659;51.038;13.786;2023-03-01T07:55:59;50.97;;;26.20;;
15116;SDS011;7659;51.038;13.786;2023-03-01T08:00:50;41.92;;;25.10;;
15116;SDS011;7659;51.038;13.786;2023-03-01T08:03:15;43.25;;;26.10;;
15116;SDS011;7659;51.038;13.786;2023-03-01T08:05:41;42.63;;;25.45;;
15116;SDS011;7659;51.038;13.786;2023-03-01T08:08:06;42.70;;;25.95;;
15116;SDS011;7659;51.038;13.786;2023-03-01T08:10:32;45.72;;;27.17;;
15116;SDS011;7659;51.038;13.786;2023-03-01T08:12:57;47.28;;;25.95;;
15116;SDS011;7659;51.038;13.786;2023-03-01T08:15:23;42.22;;;26.98;;
15116;SDS011;7659;51.038;13.786;2023-03-01T08:17:49;46.35;;;26.23;;
15116;SDS011;7659;51.038;13.786;2023-03-01T08:20:15;44.97;;;26.73;;
15116;SDS011;7659;51.038;13.786;2023-03-01T08:22:41;41.80;;;26.38;;
15116;SDS011;7659;51.038;13.786;2023-03-01T08:25:07;45.78;;;25.95;;
15116;SDS011;7659;51.038;13.786;2023-03-01T08:27:33;48.47;;;26.33;;
15116;SDS011;7659;51.038;13.786;2023-03-01T08:29:58;44.42;;;25.95;;
15116;SDS011;7659;51.038;13.786;2023-03-01T08:32:24;40.97;;;26.08;;
15116;SDS011;7659;51.038;13.786;2023-03-01T08:34:49;43.58;;;26.02;;
15116;SDS011;7659;51.038;13.786;2023-03-01T08:37:14;40.10;;;26.63;;
15116;SDS011;7659;51.038;13.786;2023-03-01T08:39:40;46.30;;;26.13;;
15116;SDS011;7659;51.038;13.786;2023-03-01T08:42:05;40.63;;;25.55;;
15116;SDS011;7659;51.038;13.786;2023-03-01T08:44:31;41.40;;;25.48;;
15116;SDS011;7659;51.038;13.786;2023-03-01T08:46:56;41.92;;;25.67;;
15116;SDS011;7659;51.038;13.786;2023-03-01T08:49:22;39.38;;;24.80;;
15116;SDS011;7659;51.038;13.786;2023-03-01T08:51:48;43.78;;;25.23;;
15116;SDS011;7659;51.038;13.786;2023-03-01T08:54:15;41.40;;;24.88;;
15116;SDS011;7659;51.038;13.786;2023-03-01T08:56:41;40.70;;;25.17;;
15116;SDS011;7659;51.038;13.786;2023-03-01T08:59:07;41.20;;;25.35;;
15116;SDS011;7659;51.038;13.786;2023-03-01T09:01:32;38.85;;;25.98;;
15116;SDS011;7659;51.038;13.786;2023-03-01T09:03:58;41.03;;;25.67;;
15116;SDS011;7659;51.038;13.786;2023-03-01T09:06:23;41.03;;;27.05;;
15116;SDS011;7659;51.038;13.786;2023-03-01T09:08:49;39.95;;;25.85;;
15116;SDS011;7659;51.038;13.786;2023-03-01T09:11:16;40.55;;;25.42;;
15116;SDS011;7659;51.038;13.786;2023-03-01T09:13:42;44.00;;;26.77;;
15116;SDS011;7659;51.038;13.786;2023-03-01T09:16:08;42.22;;;26.65;;
15116;SDS011;7659;51.038;13.786;2023-03-01T09:18:34;39.38;;;25.67;;
15116;SDS011;7659;51.038;13.786;2023-03-01T09:23:33;41.80;;;25.58;;
15116;SDS011;7659;51.038;13.786;2023-03-01T09:25:58;40.28;;;25.38;;
15116;SDS011;7659;51.038;13.786;2023-03-01T09:28:24;43.72;;;26.42;;
15116;SDS011;7659;51.038;13.786;2023-03-01T09:30:49;42.90;;;26.17;;
15116;SDS011;7659;51.038;13.786;2023-03-01T09:33:14;38.10;;;25.58;;
15116;SDS011;7659;51.038;13.786;2023-03-01T09:35:40;45.30;;;27.25;;
15116;SDS011;7659;51.038;13.786;2023-03-01T09:38:11;42.38;;;26.73;;
15116;SDS011;7659;51.038;13.786;2023-03-01T09:40:41;40.53;;;26.05;;
15116;SDS011;7659;51.038;13.786;2023-03-01T09:43:50;42.70;;;25.90;;
15116;SDS011;7659;51.038;13.786;2023-03-01T09:45:58;41.67;;;25.73;;
15116;SDS011;7659;51.038;13.786;2023-03-01T09:48:26;45.50;;;27.08;;
15116;SDS011;7659;51.038;13.786;2023-03-01T09:50:52;40.08;;;25.92;;
15116;SDS011;7659;51.038;13.786;2023-03-01T09:53:18;44.47;;;27.13;;
15116;SDS011;7659;51.038;13.786;2023-03-01T10:00:56;49.55;;;25.70;;
15116;SDS011;7659;51.038;13.786;2023-03-01T10:03:26;40.20;;;25.95;;
15116;SDS011;7659;51.038;13.786;2023-03-01T10:10:50;39.08;;;25.63;;
15116;SDS011;7659;51.038;13.786;2023-03-01T10:13:19;36.10;;;24.40;;
15116;SDS011;7659;51.038;13.786;2023-03-01T10:15:56;45.03;;;25.50;;
15116;SDS011;7659;51.038;13.786;2023-03-01T10:18:24;41.05;;;25.83;;
15116;SDS011;7659;51.038;13.786;2023-03-01T10:21:01;41.97;;;26.20;;
15116;SDS011;7659;51.038;13.786;2023-03-01T10:23:29;42.75;;;25.52;;
15116;SDS011;7659;51.038;13.786;2023-03-01T10:31:04;38.60;;;25.15;;
15116;SDS011;7659;51.038;13.786;2023-03-01T10:33:31;41.83;;;25.73;;
15116;SDS011;7659;51.038;13.786;2023-03-01T10:35:57;35.88;;;24.35;;
15116;SDS011;7659;51.038;13.786;2023-03-01T10:38:23;36.80;;;24.95;;
15116;SDS011;7659;51.038;13.786;2023-03-01T10:49:06;36.78;;;25.05;;
15116;SDS011;7659;51.038;13.786;2023-03-01T10:51:32;44.25;;;25.20;;
15116;SDS011;7659;51.038;13.786;2023-03-01T10:53:57;38.70;;;23.52;;
15116;SDS011;7659;51.038;13.786;2023-03-01T10:56:23;38.63;;;24.08;;
15116;SDS011;7659;51.038;13.786;2023-03-01T10:58:57;37.25;;;23.50;;
15116;SDS011;7659;51.038;13.786;2023-03-01T11:01:24;30.80;;;21.98;;
15116;SDS011;7659;51.038;13.786;2023-03-01T11:06:30;31.77;;;21.88;;
15116;SDS011;7659;51.038;13.786;2023-03-01T11:08:56;30.92;;;20.67;;
15116;SDS011;7659;51.038;13.786;2023-03-01T11:13:52;34.25;;;21.98;;
15116;SDS011;7659;51.038;13.786;2023-03-01T11:16:22;32.80;;;21.45;;
15116;SDS011;7659;51.038;13.786;2023-03-01T11:18:55;28.85;;;21.17;;
15116;SDS011;7659;51.038;13.786;2023-03-01T11:21:21;30.88;;;21.23;;
15116;SDS011;7659;51.038;13.786;2023-03-01T11:23:47;29.80;;;19.83;;
15116;SDS011;7659;51.038;13.786;2023-03-01T11:26:12;32.08;;;19.92;;
15116;SDS011;7659;51.038;13.786;2023-03-01T11:28:38;29.80;;;20.65;;
15116;SDS011;7659;51.038;13.786;2023-03-01T11:31:06;26.85;;;18.88;;
15116;SDS011;7659;51.038;13.786;2023-03-01T11:33:39;25.10;;;17.77;;
15116;SDS011;7659;51.038;13.786;2023-03-01T11:38:46;23.60;;;16.83;;
15116;SDS011;7659;51.038;13.786;2023-03-01T11:41:31;26.42;;;17.42;;
15116;SDS011;7659;51.038;13.786;2023-03-01T11:49:05;26.50;;;16.25;;
15116;SDS011;7659;51.038;13.786;2023-03-01T11:56:46;22.35;;;15.93;;
15116;SDS011;7659;51.038;13.786;2023-03-01T12:04:30;27.58;;;16.27;;
15116;SDS011;7659;51.038;13.786;2023-03-01T12:07:00;24.30;;;15.63;;
15116;SDS011;7659;51.038;13.786;2023-03-01T12:17:24;30.85;;;15.07;;
15116;SDS011;7659;51.038;13.786;2023-03-01T12:27:21;28.55;;;17.48;;
15116;SDS011;7659;51.038;13.786;2023-03-01T12:34:54;29.52;;;19.05;;
15116;SDS011;7659;51.038;13.786;2023-03-01T12:45:34;29.80;;;19.38;;
15116;SDS011;7659;51.038;13.786;2023-03-01T12:50:38;30.77;;;20.40;;
15116;SDS011;7659;51.038;13.786;2023-03-01T12:53:05;32.78;;;21.48;;
15116;SDS011;7659;51.038;13.786;2023-03-01T12:58:07;27.58;;;19.23;;
15116;SDS011;7659;51.038;13.786;2023-03-01T13:06:11;28.52;;;19.52;;
15116;SDS011;7659;51.038;13.786;2023-03-01T13:08:41;28.73;;;19.55;;
15116;SDS011;7659;51.038;13.786;2023-03-01T13:11:18;27.95;;;18.48;;
15116;SDS011;7659;51.038;13.786;2023-03-01T13:13:44;30.95;;;19.15;;
15116;SDS011;7659;51.038;13.786;2023-03-01T13:18:46;31.27;;;20.27;;
15116;SDS011;7659;51.038;13.786;2023-03-01T13:21:11;25.67;;;18.13;;
15116;SDS011;7659;51.038;13.786;2023-03-01T13:23:37;28.73;;;20.05;;
15116;SDS011;7659;51.038;13.786;2023-03-01T13:26:08;27.60;;;19.15;;
15116;SDS011;7659;51.038;13.786;2023-03-01T13:31:55;24.85;;;17.90;;
15116;SDS011;7659;51.038;13.786;2023-03-01T13:33:56;27.95;;;18.15;;
15116;SDS011;7659;51.038;13.786;2023-03-01T13:44:12;27.58;;;19.17;;
15116;SDS011;7659;51.038;13.786;2023-03-01T13:46:38;26.38;;;18.23;;
15116;SDS011;7659;51.038;13.786;2023-03-01T13:49:03;27.30;;;17.67;;
15116;SDS011;7659;51.038;13.786;2023-03-01T13:51:29;23.45;;;17.02;;
15116;SDS011;7659;51.038;13.786;2023-03-01T13:53:55;24.60;;;17.10;;
15116;SDS011;7659;51.038;13.786;2023-03-01T13:56:22;20.52;;;15.45;;
15116;SDS011;7659;51.038;13.786;2023-03-01T13:58:56;20.08;;;15.13;;
15116;SDS011;7659;51.038;13.786;2023-03-01T14:01:27;18.02;;;14.60;;
15116;SDS011;7659;51.038;13.786;2023-03-01T14:03:53;19.20;;;15.48;;
15116;SDS011;7659;51.038;13.786;2023-03-01T14:06:21;24.38;;;17.05;;
15116;SDS011;7659;51.038;13.786;2023-03-01T14:08:48;21.58;;;15.15;;
15116;SDS011;7659;51.038;13.786;2023-03-01T14:11:33;21.83;;;16.27;;
15116;SDS011;7659;51.038;13.786;2023-03-01T14:21:31;19.48;;;15.85;;
15116;SDS011;7659;51.038;13.786;2023-03-01T14:23:57;20.73;;;15.50;;
15116;SDS011;7659;51.038;13.786;2023-03-01T14:26:23;19.25;;;15.43;;
15116;SDS011;7659;51.038;13.786;2023-03-01T14:28:49;19.55;;;15.13;;
15116;SDS011;7659;51.038;13.786;2023-03-01T14:31:48;19.92;;;13.15;;
15116;SDS011;7659;51.038;13.786;2023-03-01T14:34:16;16.00;;;13.70;;
15116;SDS011;7659;51.038;13.786;2023-03-01T14:36:43;21.95;;;14.80;;
15116;SDS011;7659;51.038;13.786;2023-03-01T14:39:16;16.38;;;13.80;;
15116;SDS011;7659;51.038;13.786;2023-03-01T14:41:41;18.48;;;14.95;;
15116;SDS011;7659;51.038;13.786;2023-03-01T14:44:07;18.65;;;14.65;;
15116;SDS011;7659;51.038;13.786;2023-03-01T14:46:38;19.17;;;15.27;;
15116;SDS011;7659;51.038;13.786;2023-03-01T14:49:06;19.27;;;15.20;;
15116;SDS011;7659;51.038;13.786;2023-03-01T14:51:35;20.52;;;16.05;;
15116;SDS011;7659;51.038;13.786;2023-03-01T14:54:01;17.58;;;15.30;;
15116;SDS011;7659;51.038;13.786;2023-03-01T14:56:26;19.73;;;14.85;;
15116;SDS011;7659;51.038;13.786;2023-03-01T14:58:53;16.73;;;14.90;;
15116;SDS011;7659;51.038;13.786;2023-03-01T15:01:18;20.67;;;15.77;;
15116;SDS011;7659;51.038;13.786;2023-03-01T15:03:46;20.40;;;14.45;;
15116;SDS011;7659;51.038;13.786;2023-03-01T15:06:14;20.65;;;15.35;;
15116;SDS011;7659;51.038;13.786;2023-03-01T15:08:41;17.35;;;14.93;;
15116;SDS011;7659;51.038;13.786;2023-03-01T15:13:39;20.00;;;15.35;;
15116;SDS011;7659;51.038;13.786;2023-03-01T15:16:05;20.02;;;15.18;;
15116;SDS011;7659;51.038;13.786;2023-03-01T15:18:32;19.65;;;14.95;;
15116;SDS011;7659;51.038;13.786;2023-03-01T15:23:54;19.73;;;14.25;;
15116;SDS011;7659;51.038;13.786;2023-03-01T15:28:50;19.70;;;14.07;;
15116;SDS011;7659;51.038;13.786;2023-03-01T15:33:41;20.70;;;14.50;;
15116;SDS011;7659;51.038;13.786;2023-03-01T15:38:58;23.07;;;16.00;;
15116;SDS011;7659;51.038;13.786;2023-03-01T15:41:28;24.05;;;14.98;;
15116;SDS011;7659;51.038;13.786;2023-03-01T15:43:56;27.25;;;15.15;;
15116;SDS011;7659;51.038;13.786;2023-03-01T15:48:56;20.65;;;14.70;;
15116;SDS011;7659;51.038;13.786;2023-03-01T15:51:26;23.35;;;14.82;;
15116;SDS011;7659;51.038;13.786;2023-03-01T15:53:52;24.50;;;15.30;;
15116;SDS011;7659;51.038;13.786;2023-03-01T15:56:18;22.55;;;15.57;;
15116;SDS011;7659;51.038;13.786;2023-03-01T15:58:44;23.55;;;15.52;;
15116;SDS011;7659;51.038;13.786;2023-03-01T16:01:13;26.05;;;15.95;;
15116;SDS011;7659;51.038;13.786;2023-03-01T16:03:39;21.40;;;15.18;;
15116;SDS011;7659;51.038;13.786;2023-03-01T16:06:05;20.83;;;14.98;;
15116;SDS011;7659;51.038;13.786;2023-03-01T16:08:30;22.23;;;14.82;;
15116;SDS011;7659;51.038;13.786;2023-03-01T16:10:56;27.42;;;16.42;;
15116;SDS011;7659;51.038;13.786;2023-03-01T16:13:21;23.05;;;15.25;;
15116;SDS011;7659;51.038;13.786;2023-03-01T16:15:46;23.48;;;15.57;;
15116;SDS011;7659;51.038;13.786;2023-03-01T16:18:12;23.55;;;15.65;;
15116;SDS011;7659;51.038;13.786;2023-03-01T16:20:37;23.30;;;14.95;;
15116;SDS011;7659;51.038;13.786;2023-03-01T16:23:04;21.15;;;14.27;;
15116;SDS011;7659;51.038;13.786;2023-03-01T16:25:30;25.00;;;15.38;;
15116;SDS011;7659;51.038;13.786;2023-03-01T16:27:56;23.25;;;14.27;;
15116;SDS011;7659;51.038;13.786;2023-03-01T16:30:23;24.05;;;14.77;;
15116;SDS011;7659;51.038;13.786;2023-03-01T16:32:49;23.75;;;14.45;;
15116;SDS011;7659;51.038;13.786;2023-03-01T16:35:16;25.30;;;14.50;;
15116;SDS011;7659;51.038;13.786;2023-03-01T16:37:42;23.77;;;14.25;;